sensor_id;sensor_type;location;lat;lon;timestamp;temperature;humidity
21834;DHT22;11079;51.092;3.458;2023-03-23T00:01:30;13.20;99.90
21834;DHT22;11079;51.092;3.458;2023-03-23T00:03:57;13.20;99.90
21834;DHT22;11079;51.092;3.458;2023-03-23T00:06:25;13.20;99.90
21834;DHT22;11079;51.092;3.458;2023-03-23T00:08:52;13.20;99.90
21834;DHT22;11079;51.092;3.458;2023-03-23T00:11:23;13.20;99.90
21834;DHT22;11079;51.092;3.458;2023-03-23T00:13:52;13.10;99.90
21834;DHT22;11079;51.092;3.458;2023-03-23T00:16:24;13.20;99.90
21834;DHT22;11079;51.092;3.458;2023-03-23T00:19:00;13.20;99.90
21834;DHT22;11079;51.092;3.458;2023-03-23T00:21:29;13.20;99.90
21834;DHT22;11079;51.092;3.458;2023-03-23T00:24:15;13.20;99.90
21834;DHT22;11079;51.092;3.458;2023-03-23T00:26:43;13.00;99.90
21834;DHT22;11079;51.092;3.458;2023-03-23T00:29:18;13.00;99.90
21834;DHT22;11079;51.092;3.458;2023-03-23T00:31:46;13.00;99.90
21834;DHT22;11079;51.092;3.458;2023-03-23T00:34:14;12.90;99.90
21834;DHT22;11079;51.092;3.458;2023-03-23T00:36:44;12.90;99.90
21834;DHT22;11079;51.092;3.458;2023-03-23T00:39:10;12.90;99.90
21834;DHT22;11079;51.092;3.458;2023-03-23T00:41:37;12.90;99.90
21834;DHT22;11079;51.092;3.458;2023-03-23T00:44:04;12.90;99.90
21834;DHT22;11079;51.092;3.458;2023-03-23T00:46:29;12.90;99.90
21834;DHT22;11079;51.092;3.458;2023-03-23T00:48:56;13.10;99.90
21834;DHT22;11079;51.092;3.458;2023-03-23T00:51:23;13.00;99.90
21834;DHT22;11079;51.092;3.458;2023-03-23T00:53:49;13.00;99.90
21834;DHT22;11079;51.092;3.458;2023-03-23T00:56:15;13.00;99.90
21834;DHT22;11079;51.092;3.458;2023-03-23T00:58:41;12.90;99.90
21834;DHT22;11079;51.092;3.458;2023-03-23T01:01:07;12.90;99.90
21834;DHT22;11079;51.092;3.458;2023-03-23T01:03:33;13.00;99.90
21834;DHT22;11079;51.092;3.458;2023-03-23T01:06:10;12.90;99.90
21834;DHT22;11079;51.092;3.458;2023-03-23T01:08:40;12.90;99.90
21834;DHT22;11079;51.092;3.458;2023-03-23T01:11:14;12.90;99.90
21834;DHT22;11079;51.092;3.458;2023-03-23T01:13:44;12.90;99.90
21834;DHT22;11079;51.092;3.458;2023-03-23T01:16:11;13.00;99.90
21834;DHT22;11079;51.092;3.458;2023-03-23T01:18:37;12.90;99.90
21834;DHT22;11079;51.092;3.458;2023-03-23T01:21:11;13.00;99.90
21834;DHT22;11079;51.092;3.458;2023-03-23T01:23:38;13.00;99.90
21834;DHT22;11079;51.092;3.458;2023-03-23T01:26:11;13.10;99.90
21834;DHT22;11079;51.092;3.458;2023-03-23T01:28:38;13.00;99.90
21834;DHT22;11079;51.092;3.458;2023-03-23T01:31:06;12.90;99.90
21834;DHT22;11079;51.092;3.458;2023-03-23T01:33:32;12.90;99.90
21834;DHT22;11079;51.092;3.458;2023-03-23T01:36:01;12.90;99.90
21834;DHT22;11079;51.092;3.458;2023-03-23T01:38:27;12.90;99.90
21834;DHT22;11079;51.092;3.458;2023-03-23T01:40:53;12.90;99.90
21834;DHT22;11079;51.092;3.458;2023-03-23T01:43:18;12.90;99.90
21834;DHT22;11079;51.092;3.458;2023-03-23T01:45:44;12.90;99.90
21834;DHT22;11079;51.092;3.458;2023-03-23T01:50:47;13.00;99.90
21834;DHT22;11079;51.092;3.458;2023-03-23T01:53:15;12.90;99.90
21834;DHT22;11079;51.092;3.458;2023-03-23T01:55:43;13.00;99.90
21834;DHT22;11079;51.092;3.458;2023-03-23T01:58:13;12.90;99.90
21834;DHT22;11079;51.092;3.458;2023-03-23T02:00:40;13.00;99.90
21834;DHT22;11079;51.092;3.458;2023-03-23T02:03:08;12.90;99.90
21834;DHT22;11079;51.092;3.458;2023-03-23T02:05:38;13.00;99.90
21834;DHT22;11079;51.092;3.458;2023-03-23T02:08:05;13.00;99.90
21834;DHT22;11079;51.092;3.458;2023-03-23T02:10:33;12.90;99.90
21834;DHT22;11079;51.092;3.458;2023-03-23T02:13:00;12.90;99.90
21834;DHT22;11079;51.092;3.458;2023-03-23T02:15:39;12.90;99.90
21834;DHT22;11079;51.092;3.458;2023-03-23T02:18:08;12.90;99.90
21834;DHT22;11079;51.092;3.458;2023-03-23T02:26:01;12.90;99.90
21834;DHT22;11079;51.092;3.458;2023-03-23T02:28:55;12.90;99.90
21834;DHT22;11079;51.092;3.458;2023-03-23T02:34:18;12.90;99.90
21834;DHT22;11079;51.092;3.458;2023-03-23T02:36:50;12.90;99.90
21834;DHT22;11079;51.092;3.458;2023-03-23T02:39:43;13.00;99.90
21834;DHT22;11079;51.092;3.458;2023-03-23T02:42:13;13.00;99.90
21834;DHT22;11079;51.092;3.458;2023-03-23T02:44:43;12.90;99.90
21834;DHT22;11079;51.092;3.458;2023-03-23T02:47:21;12.90;99.90
21834;DHT22;11079;51.092;3.458;2023-03-23T02:49:51;13.00;99.90
21834;DHT22;11079;51.092;3.458;2023-03-23T02:52:21;13.00;99.90
21834;DHT22;11079;51.092;3.458;2023-03-23T02:54:49;12.90;99.90
21834;DHT22;11079;51.092;3.458;2023-03-23T02:57:16;13.00;99.90
21834;DHT22;11079;51.092;3.458;2023-03-23T02:59:42;13.10;99.90
21834;DHT22;11079;51.092;3.458;2023-03-23T03:02:25;13.00;99.90
21834;DHT22;11079;51.092;3.458;2023-03-23T03:07:49;12.90;99.90
21834;DHT22;11079;51.092;3.458;2023-03-23T03:18:46;12.80;99.90
21834;DHT22;11079;51.092;3.458;2023-03-23T03:21:16;12.80;99.90
21834;DHT22;11079;51.092;3.458;2023-03-23T03:23:46;12.80;99.90
21834;DHT22;11079;51.092;3.458;2023-03-23T03:26:15;12.80;99.90
21834;DHT22;11079;51.092;3.458;2023-03-23T03:28:44;12.90;99.90
21834;DHT22;11079;51.092;3.458;2023-03-23T03:31:13;12.80;99.90
21834;DHT22;11079;51.092;3.458;2023-03-23T03:33:40;12.90;99.90
21834;DHT22;11079;51.092;3.458;2023-03-23T03:36:06;12.90;99.90
21834;DHT22;11079;51.092;3.458;2023-03-23T03:38:42;12.90;99.90
21834;DHT22;11079;51.092;3.458;2023-03-23T03:41:08;12.80;99.90
21834;DHT22;11079;51.092;3.458;2023-03-23T03:43:33;12.80;99.90
21834;DHT22;11079;51.092;3.458;2023-03-23T03:46:00;12.80;99.90
21834;DHT22;11079;51.092;3.458;2023-03-23T03:48:26;12.90;99.90
21834;DHT22;11079;51.092;3.458;2023-03-23T03:50:51;13.00;99.90
21834;DHT22;11079;51.092;3.458;2023-03-23T03:53:17;12.90;99.90
21834;DHT22;11079;51.092;3.458;2023-03-23T03:55:43;12.90;99.90
21834;DHT22;11079;51.092;3.458;2023-03-23T03:58:14;12.80;99.90
21834;DHT22;11079;51.092;3.458;2023-03-23T04:00:39;12.80;99.90
21834;DHT22;11079;51.092;3.458;2023-03-23T04:03:06;12.70;99.90
21834;DHT22;11079;51.092;3.458;2023-03-23T04:05:32;12.80;99.90
21834;DHT22;11079;51.092;3.458;2023-03-23T04:07:58;12.80;99.90
21834;DHT22;11079;51.092;3.458;2023-03-23T04:10:28;12.80;99.90
21834;DHT22;11079;51.092;3.458;2023-03-23T04:12:54;12.80;99.90
21834;DHT22;11079;51.092;3.458;2023-03-23T04:15:21;12.70;99.90
21834;DHT22;11079;51.092;3.458;2023-03-23T04:17:46;12.70;99.90
21834;DHT22;11079;51.092;3.458;2023-03-23T04:20:12;12.50;99.90
21834;DHT22;11079;51.092;3.458;2023-03-23T04:22:47;12.60;99.90
21834;DHT22;11079;51.092;3.458;2023-03-23T04:25:16;12.50;99.90
21834;DHT22;11079;51.092;3.458;2023-03-23T04:27:43;12.50;99.90
21834;DHT22;11079;51.092;3.458;2023-03-23T04:30:11;12.40;99.90
21834;DHT22;11079;51.092;3.458;2023-03-23T04:32:39;12.30;99.90
21834;DHT22;11079;51.092;3.458;2023-03-23T04:35:11;12.20;99.90
21834;DHT22;11079;51.092;3.458;2023-03-23T04:37:37;12.10;99.90
21834;DHT22;11079;51.092;3.458;2023-03-23T04:40:05;11.90;99.90
21834;DHT22;11079;51.092;3.458;2023-03-23T04:42:41;11.80;99.90
21834;DHT22;11079;51.092;3.458;2023-03-23T04:45:11;11.70;99.90
21834;DHT22;11079;51.092;3.458;2023-03-23T04:47:38;11.70;99.90
21834;DHT22;11079;51.092;3.458;2023-03-23T04:50:09;11.70;99.90
21834;DHT22;11079;51.092;3.458;2023-03-23T04:52:36;11.80;99.90
21834;DHT22;11079;51.092;3.458;2023-03-23T04:55:07;11.70;99.90
21834;DHT22;11079;51.092;3.458;2023-03-23T04:57:34;11.60;99.90
21834;DHT22;11079;51.092;3.458;2023-03-23T05:00:04;11.70;99.90
21834;DHT22;11079;51.092;3.458;2023-03-23T05:02:38;11.60;99.90
21834;DHT22;11079;51.092;3.458;2023-03-23T05:05:06;11.60;99.90
21834;DHT22;11079;51.092;3.458;2023-03-23T05:07:32;11.60;99.90
21834;DHT22;11079;51.092;3.458;2023-03-23T05:09:58;11.60;99.90
21834;DHT22;11079;51.092;3.458;2023-03-23T05:12:23;11.60;99.90
21834;DHT22;11079;51.092;3.458;2023-03-23T05:14:49;11.50;99.90
21834;DHT22;11079;51.092;3.458;2023-03-23T05:17:15;11.50;99.90
21834;DHT22;11079;51.092;3.458;2023-03-23T05:19:43;11.50;99.90
21834;DHT22;11079;51.092;3.458;2023-03-23T05:22:13;11.50;99.90
21834;DHT22;11079;51.092;3.458;2023-03-23T05:24:40;11.40;99.90
21834;DHT22;11079;51.092;3.458;2023-03-23T05:27:05;11.40;99.90
21834;DHT22;11079;51.092;3.458;2023-03-23T05:29:33;11.40;99.90
21834;DHT22;11079;51.092;3.458;2023-03-23T05:32:02;11.40;99.90
21834;DHT22;11079;51.092;3.458;2023-03-23T05:34:29;11.40;99.90
21834;DHT22;11079;51.092;3.458;2023-03-23T05:36:58;11.30;99.90
21834;DHT22;11079;51.092;3.458;2023-03-23T05:39:26;11.40;99.90
21834;DHT22;11079;51.092;3.458;2023-03-23T05:41:52;11.40;99.90
21834;DHT22;11079;51.092;3.458;2023-03-23T05:44:19;11.20;99.90
21834;DHT22;11079;51.092;3.458;2023-03-23T05:46:45;11.30;99.90
21834;DHT22;11079;51.092;3.458;2023-03-23T05:49:24;11.20;99.90
21834;DHT22;11079;51.092;3.458;2023-03-23T05:51:52;11.10;99.90
21834;DHT22;11079;51.092;3.458;2023-03-23T05:54:18;11.00;99.90
21834;DHT22;11079;51.092;3.458;2023-03-23T05:56:45;11.00;99.90
21834;DHT22;11079;51.092;3.458;2023-03-23T05:59:11;10.90;99.90
21834;DHT22;11079;51.092;3.458;2023-03-23T06:01:38;10.90;99.90
21834;DHT22;11079;51.092;3.458;2023-03-23T06:04:04;10.90;99.90
21834;DHT22;11079;51.092;3.458;2023-03-23T06:06:30;10.90;99.90
21834;DHT22;11079;51.092;3.458;2023-03-23T06:08:58;11.00;99.90
21834;DHT22;11079;51.092;3.458;2023-03-23T06:11:24;10.90;99.90
21834;DHT22;11079;51.092;3.458;2023-03-23T06:13:51;10.90;99.90
21834;DHT22;11079;51.092;3.458;2023-03-23T06:16:18;10.80;99.90
21834;DHT22;11079;51.092;3.458;2023-03-23T06:18:44;10.80;99.90
21834;DHT22;11079;51.092;3.458;2023-03-23T06:21:10;10.80;99.90
21834;DHT22;11079;51.092;3.458;2023-03-23T06:23:37;10.70;99.90
21834;DHT22;11079;51.092;3.458;2023-03-23T06:26:07;10.70;99.90
21834;DHT22;11079;51.092;3.458;2023-03-23T06:28:33;10.80;99.90
21834;DHT22;11079;51.092;3.458;2023-03-23T06:31:03;10.80;99.90
21834;DHT22;11079;51.092;3.458;2023-03-23T06:33:37;10.80;99.90
21834;DHT22;11079;51.092;3.458;2023-03-23T06:36:13;10.80;99.90
21834;DHT22;11079;51.092;3.458;2023-03-23T06:38:39;10.80;99.90
21834;DHT22;11079;51.092;3.458;2023-03-23T06:41:05;10.80;99.90
21834;DHT22;11079;51.092;3.458;2023-03-23T06:43:30;10.80;99.90
21834;DHT22;11079;51.092;3.458;2023-03-23T06:45:59;10.90;99.90
21834;DHT22;11079;51.092;3.458;2023-03-23T06:48:25;10.90;99.90
21834;DHT22;11079;51.092;3.458;2023-03-23T06:50:50;10.80;99.90
21834;DHT22;11079;51.092;3.458;2023-03-23T06:53:16;10.80;99.90
21834;DHT22;11079;51.092;3.458;2023-03-23T06:55:43;10.80;99.90
21834;DHT22;11079;51.092;3.458;2023-03-23T06:58:09;10.80;99.90
21834;DHT22;11079;51.092;3.458;2023-03-23T07:00:35;10.70;99.90
21834;DHT22;11079;51.092;3.458;2023-03-23T07:03:01;10.80;99.90
21834;DHT22;11079;51.092;3.458;2023-03-23T07:05:27;10.80;99.90
21834;DHT22;11079;51.092;3.458;2023-03-23T07:07:53;11.00;99.90
21834;DHT22;11079;51.092;3.458;2023-03-23T07:10:18;10.80;99.90
21834;DHT22;11079;51.092;3.458;2023-03-23T07:12:44;10.80;99.90
21834;DHT22;11079;51.092;3.458;2023-03-23T07:15:10;10.80;99.90
21834;DHT22;11079;51.092;3.458;2023-03-23T07:17:38;10.80;99.90
21834;DHT22;11079;51.092;3.458;2023-03-23T07:20:05;10.70;99.90
21834;DHT22;11079;51.092;3.458;2023-03-23T07:22:31;10.80;99.90
21834;DHT22;11079;51.092;3.458;2023-03-23T07:24:57;10.90;99.90
21834;DHT22;11079;51.092;3.458;2023-03-23T07:27:22;11.00;99.90
21834;DHT22;11079;51.092;3.458;2023-03-23T07:29:48;11.00;99.90
21834;DHT22;11079;51.092;3.458;2023-03-23T07:32:14;11.20;99.90
21834;DHT22;11079;51.092;3.458;2023-03-23T07:34:40;11.20;99.90
21834;DHT22;11079;51.092;3.458;2023-03-23T07:37:06;11.20;99.90
21834;DHT22;11079;51.092;3.458;2023-03-23T07:39:32;11.40;99.90
21834;DHT22;11079;51.092;3.458;2023-03-23T07:41:58;11.90;99.90
21834;DHT22;11079;51.092;3.458;2023-03-23T07:44:24;13.80;99.90
21834;DHT22;11079;51.092;3.458;2023-03-23T07:46:50;14.60;99.90
21834;DHT22;11079;51.092;3.458;2023-03-23T07:49:16;14.90;99.90
21834;DHT22;11079;51.092;3.458;2023-03-23T07:51:43;15.90;99.90
21834;DHT22;11079;51.092;3.458;2023-03-23T07:54:08;16.80;99.90
21834;DHT22;11079;51.092;3.458;2023-03-23T07:56:35;17.10;99.90
21834;DHT22;11079;51.092;3.458;2023-03-23T07:59:02;17.20;99.90
21834;DHT22;11079;51.092;3.458;2023-03-23T08:01:28;18.80;99.90
21834;DHT22;11079;51.092;3.458;2023-03-23T08:03:54;19.20;99.90
21834;DHT22;11079;51.092;3.458;2023-03-23T08:06:22;19.80;99.90
21834;DHT22;11079;51.092;3.458;2023-03-23T08:08:48;20.50;99.90
21834;DHT22;11079;51.092;3.458;2023-03-23T08:11:15;21.20;99.90
21834;DHT22;11079;51.092;3.458;2023-03-23T08:13:41;20.60;99.90
21834;DHT22;11079;51.092;3.458;2023-03-23T08:16:08;19.60;99.90
21834;DHT22;11079;51.092;3.458;2023-03-23T08:18:35;19.40;99.90
21834;DHT22;11079;51.092;3.458;2023-03-23T08:21:02;19.80;99.90
21834;DHT22;11079;51.092;3.458;2023-03-23T08:23:30;19.70;99.90
21834;DHT22;11079;51.092;3.458;2023-03-23T08:25:56;20.60;99.90
21834;DHT22;11079;51.092;3.458;2023-03-23T08:28:23;20.90;99.90
21834;DHT22;11079;51.092;3.458;2023-03-23T08:30:49;19.40;99.90
21834;DHT22;11079;51.092;3.458;2023-03-23T08:33:15;19.50;99.90
21834;DHT22;11079;51.092;3.458;2023-03-23T08:35:41;19.30;99.90
21834;DHT22;11079;51.092;3.458;2023-03-23T08:38:09;19.10;99.90
21834;DHT22;11079;51.092;3.458;2023-03-23T08:40:35;18.00;99.90
21834;DHT22;11079;51.092;3.458;2023-03-23T08:43:02;17.30;99.90
21834;DHT22;11079;51.092;3.458;2023-03-23T08:45:27;16.60;99.90
21834;DHT22;11079;51.092;3.458;2023-03-23T08:47:54;16.80;99.90
21834;DHT22;11079;51.092;3.458;2023-03-23T08:50:24;17.90;99.90
21834;DHT22;11079;51.092;3.458;2023-03-23T08:52:51;19.40;99.90
21834;DHT22;11079;51.092;3.458;2023-03-23T08:55:17;21.20;99.90
21834;DHT22;11079;51.092;3.458;2023-03-23T08:57:43;20.50;99.90
21834;DHT22;11079;51.092;3.458;2023-03-23T09:00:13;20.70;99.90
21834;DHT22;11079;51.092;3.458;2023-03-23T09:02:48;19.90;99.90
21834;DHT22;11079;51.092;3.458;2023-03-23T09:05:15;19.40;99.90
21834;DHT22;11079;51.092;3.458;2023-03-23T09:07:45;19.20;99.90
21834;DHT22;11079;51.092;3.458;2023-03-23T09:10:12;18.90;99.90
21834;DHT22;11079;51.092;3.458;2023-03-23T09:12:44;19.30;99.90
21834;DHT22;11079;51.092;3.458;2023-03-23T09:15:14;19.30;99.90
21834;DHT22;11079;51.092;3.458;2023-03-23T09:17:48;19.70;99.90
21834;DHT22;11079;51.092;3.458;2023-03-23T09:20:17;19.20;99.90
21834;DHT22;11079;51.092;3.458;2023-03-23T09:22:48;18.90;99.90
21834;DHT22;11079;51.092;3.458;2023-03-23T09:25:16;19.60;99.90
21834;DHT22;11079;51.092;3.458;2023-03-23T09:27:44;19.60;99.90
21834;DHT22;11079;51.092;3.458;2023-03-23T09:30:13;20.00;99.90
21834;DHT22;11079;51.092;3.458;2023-03-23T09:32:39;20.10;99.90
21834;DHT22;11079;51.092;3.458;2023-03-23T09:35:08;20.60;99.90
21834;DHT22;11079;51.092;3.458;2023-03-23T09:37:35;20.40;99.90
21834;DHT22;11079;51.092;3.458;2023-03-23T09:40:07;20.00;99.90
21834;DHT22;11079;51.092;3.458;2023-03-23T09:45:16;18.80;99.90
21834;DHT22;11079;51.092;3.458;2023-03-23T09:50:19;18.00;99.90
21834;DHT22;11079;51.092;3.458;2023-03-23T09:53:04;17.60;99.90
21834;DHT22;11079;51.092;3.458;2023-03-23T09:55:35;17.10;99.90
21834;DHT22;11079;51.092;3.458;2023-03-23T09:58:27;16.90;99.90
21834;DHT22;11079;51.092;3.458;2023-03-23T10:01:47;17.00;99.90
21834;DHT22;11079;51.092;3.458;2023-03-23T10:04:03;16.90;99.90
21834;DHT22;11079;51.092;3.458;2023-03-23T10:06:30;17.00;99.90
21834;DHT22;11079;51.092;3.458;2023-03-23T10:08:59;17.20;99.90
21834;DHT22;11079;51.092;3.458;2023-03-23T10:11:45;17.20;99.90
21834;DHT22;11079;51.092;3.458;2023-03-23T10:14:27;16.80;99.90
21834;DHT22;11079;51.092;3.458;2023-03-23T10:20:22;16.00;99.90
21834;DHT22;11079;51.092;3.458;2023-03-23T10:25:19;15.80;99.90
21834;DHT22;11079;51.092;3.458;2023-03-23T10:28:01;16.40;99.90
21834;DHT22;11079;51.092;3.458;2023-03-23T10:30:41;16.60;99.90
21834;DHT22;11079;51.092;3.458;2023-03-23T10:38:18;17.60;99.90
21834;DHT22;11079;51.092;3.458;2023-03-23T10:40:53;17.60;99.90
21834;DHT22;11079;51.092;3.458;2023-03-23T10:43:19;18.60;99.90
21834;DHT22;11079;51.092;3.458;2023-03-23T10:46:00;18.90;99.90
21834;DHT22;11079;51.092;3.458;2023-03-23T10:48:31;18.90;99.90
21834;DHT22;11079;51.092;3.458;2023-03-23T10:51:01;18.60;99.90
21834;DHT22;11079;51.092;3.458;2023-03-23T10:53:30;17.60;99.90
21834;DHT22;11079;51.092;3.458;2023-03-23T10:55:57;16.90;99.90
21834;DHT22;11079;51.092;3.458;2023-03-23T10:58:30;16.60;99.90
21834;DHT22;11079;51.092;3.458;2023-03-23T11:01:01;17.30;99.90
21834;DHT22;11079;51.092;3.458;2023-03-23T11:03:43;18.40;99.90
21834;DHT22;11079;51.092;3.458;2023-03-23T11:06:12;19.70;99.90
21834;DHT22;11079;51.092;3.458;2023-03-23T11:08:51;20.50;99.90
21834;DHT22;11079;51.092;3.458;2023-03-23T11:11:24;19.90;99.90
21834;DHT22;11079;51.092;3.458;2023-03-23T11:14:00;20.10;99.90
21834;DHT22;11079;51.092;3.458;2023-03-23T11:16:30;19.40;99.90
21834;DHT22;11079;51.092;3.458;2023-03-23T11:18:58;18.80;99.90
21834;DHT22;11079;51.092;3.458;2023-03-23T11:21:24;18.10;99.90
21834;DHT22;11079;51.092;3.458;2023-03-23T11:23:59;17.40;99.90
21834;DHT22;11079;51.092;3.458;2023-03-23T11:31:37;15.60;99.90
21834;DHT22;11079;51.092;3.458;2023-03-23T11:34:09;14.80;99.90
21834;DHT22;11079;51.092;3.458;2023-03-23T11:36:40;14.40;99.90
21834;DHT22;11079;51.092;3.458;2023-03-23T11:39:46;13.80;99.90
21834;DHT22;11079;51.092;3.458;2023-03-23T11:43:19;13.40;99.90
21834;DHT22;11079;51.092;3.458;2023-03-23T11:45:40;13.00;99.90
21834;DHT22;11079;51.092;3.458;2023-03-23T11:51:06;13.50;99.90
21834;DHT22;11079;51.092;3.458;2023-03-23T11:53:45;14.30;99.90
21834;DHT22;11079;51.092;3.458;2023-03-23T11:56:29;14.80;99.90
21834;DHT22;11079;51.092;3.458;2023-03-23T11:59:16;15.10;99.90
21834;DHT22;11079;51.092;3.458;2023-03-23T12:01:57;17.00;99.90
21834;DHT22;11079;51.092;3.458;2023-03-23T12:04:33;17.30;99.90
21834;DHT22;11079;51.092;3.458;2023-03-23T12:09:44;17.40;99.90
21834;DHT22;11079;51.092;3.458;2023-03-23T12:12:49;17.30;99.90
21834;DHT22;11079;51.092;3.458;2023-03-23T12:15:32;18.00;99.90
21834;DHT22;11079;51.092;3.458;2023-03-23T12:18:23;19.60;99.90
21834;DHT22;11079;51.092;3.458;2023-03-23T12:21:24;21.50;99.90
21834;DHT22;11079;51.092;3.458;2023-03-23T12:26:28;21.50;99.90
21834;DHT22;11079;51.092;3.458;2023-03-23T12:37:56;18.70;99.90
21834;DHT22;11079;51.092;3.458;2023-03-23T12:41:22;19.30;99.90
21834;DHT22;11079;51.092;3.458;2023-03-23T12:43:48;20.00;99.90
21834;DHT22;11079;51.092;3.458;2023-03-23T12:52:18;19.30;99.90
21834;DHT22;11079;51.092;3.458;2023-03-23T12:55:05;18.20;99.90
21834;DHT22;11079;51.092;3.458;2023-03-23T12:57:38;18.40;99.90
21834;DHT22;11079;51.092;3.458;2023-03-23T13:00:22;19.30;99.90
21834;DHT22;11079;51.092;3.458;2023-03-23T13:02:57;19.40;99.90
21834;DHT22;11079;51.092;3.458;2023-03-23T13:10:23;18.40;99.90
21834;DHT22;11079;51.092;3.458;2023-03-23T13:12:52;18.50;99.90
21834;DHT22;11079;51.092;3.458;2023-03-23T13:15:27;19.30;99.90
21834;DHT22;11079;51.092;3.458;2023-03-23T13:18:08;20.10;99.90
21834;DHT22;11079;51.092;3.458;2023-03-23T13:21:00;20.70;99.90
21834;DHT22;11079;51.092;3.458;2023-03-23T13:23:33;20.60;99.90
21834;DHT22;11079;51.092;3.458;2023-03-23T13:26:06;19.50;99.90
21834;DHT22;11079;51.092;3.458;2023-03-23T13:28:47;18.80;99.90
21834;DHT22;11079;51.092;3.458;2023-03-23T13:31:15;18.50;99.90
21834;DHT22;11079;51.092;3.458;2023-03-23T13:33:53;18.10;99.90
21834;DHT22;11079;51.092;3.458;2023-03-23T13:36:38;17.80;99.90
21834;DHT22;11079;51.092;3.458;2023-03-23T13:39:17;17.80;99.90
21834;DHT22;11079;51.092;3.458;2023-03-23T13:44:41;19.10;99.90
21834;DHT22;11079;51.092;3.458;2023-03-23T13:49:59;19.00;99.90
21834;DHT22;11079;51.092;3.458;2023-03-23T13:58:10;19.80;99.90
21834;DHT22;11079;51.092;3.458;2023-03-23T14:01:09;20.50;99.90
21834;DHT22;11079;51.092;3.458;2023-03-23T14:03:39;20.70;99.90
21834;DHT22;11079;51.092;3.458;2023-03-23T14:06:11;20.10;99.90
21834;DHT22;11079;51.092;3.458;2023-03-23T14:08:40;20.00;99.90
21834;DHT22;11079;51.092;3.458;2023-03-23T14:11:16;20.10;99.90
21834;DHT22;11079;51.092;3.458;2023-03-23T14:13:47;20.40;99.90
21834;DHT22;11079;51.092;3.458;2023-03-23T14:16:16;20.60;99.90
21834;DHT22;11079;51.092;3.458;2023-03-23T14:18:54;20.10;99.90
21834;DHT22;11079;51.092;3.458;2023-03-23T14:21:41;19.30;99.90
21834;DHT22;11079;51.092;3.458;2023-03-23T14:24:22;18.70;99.90
21834;DHT22;11079;51.092;3.458;2023-03-23T14:26:49;18.40;99.90
21834;DHT22;11079;51.092;3.458;2023-03-23T14:29:18;18.00;99.90
21834;DHT22;11079;51.092;3.458;2023-03-23T14:31:49;18.10;99.90
21834;DHT22;11079;51.092;3.458;2023-03-23T14:34:19;18.30;99.90
21834;DHT22;11079;51.092;3.458;2023-03-23T14:36:46;17.90;99.90
21834;DHT22;11079;51.092;3.458;2023-03-23T14:41:38;17.50;99.90
21834;DHT22;11079;51.092;3.458;2023-03-23T14:44:08;17.00;99.90
21834;DHT22;11079;51.092;3.458;2023-03-23T14:46:35;16.90;99.90
21834;DHT22;11079;51.092;3.458;2023-03-23T14:49:04;16.80;99.90
21834;DHT22;11079;51.092;3.458;2023-03-23T14:51:31;16.60;99.90
21834;DHT22;11079;51.092;3.458;2023-03-23T14:53:59;16.60;99.90
21834;DHT22;11079;51.092;3.458;2023-03-23T14:56:33;16.50;99.90
21834;DHT22;11079;51.092;3.458;2023-03-23T14:59:04;16.70;99.90
21834;DHT22;11079;51.092;3.458;2023-03-23T15:01:32;17.00;99.90
21834;DHT22;11079;51.092;3.458;2023-03-23T15:04:01;16.90;99.90
21834;DHT22;11079;51.092;3.458;2023-03-23T15:06:30;16.80;99.90
21834;DHT22;11079;51.092;3.458;2023-03-23T15:08:59;16.70;99.90
21834;DHT22;11079;51.092;3.458;2023-03-23T15:11:34;16.80;99.90
21834;DHT22;11079;51.092;3.458;2023-03-23T15:14:22;16.90;99.90
21834;DHT22;11079;51.092;3.458;2023-03-23T15:16:53;16.70;99.90
21834;DHT22;11079;51.092;3.458;2023-03-23T15:19:27;16.70;99.90
21834;DHT22;11079;51.092;3.458;2023-03-23T15:22:04;16.50;99.90
21834;DHT22;11079;51.092;3.458;2023-03-23T15:24:41;16.40;99.90
21834;DHT22;11079;51.092;3.458;2023-03-23T15:27:28;16.30;99.90
21834;DHT22;11079;51.092;3.458;2023-03-23T15:29:59;16.20;99.90
21834;DHT22;11079;51.092;3.458;2023-03-23T15:32:37;16.10;99.90
21834;DHT22;11079;51.092;3.458;2023-03-23T15:35:10;16.10;99.90
21834;DHT22;11079;51.092;3.458;2023-03-23T15:37:43;16.30;99.90
21834;DHT22;11079;51.092;3.458;2023-03-23T15:40:17;16.40;99.90
21834;DHT22;11079;51.092;3.458;2023-03-23T15:42:43;16.60;99.90
21834;DHT22;11079;51.092;3.458;2023-03-23T15:50:19;16.70;99.90
21834;DHT22;11079;51.092;3.458;2023-03-23T15:52:46;16.70;99.90
21834;DHT22;11079;51.092;3.458;2023-03-23T15:55:25;16.60;99.90
21834;DHT22;11079;51.092;3.458;2023-03-23T15:57:52;16.60;99.90
21834;DHT22;11079;51.092;3.458;2023-03-23T16:00:19;16.50;99.90
21834;DHT22;11079;51.092;3.458;2023-03-23T16:02:46;16.00;99.90
21834;DHT22;11079;51.092;3.458;2023-03-23T16:05:14;15.60;99.90
21834;DHT22;11079;51.092;3.458;2023-03-23T16:07:40;15.10;99.90
21834;DHT22;11079;51.092;3.458;2023-03-23T16:10:06;14.80;99.90
21834;DHT22;11079;51.092;3.458;2023-03-23T16:12:36;14.60;99.90
21834;DHT22;11079;51.092;3.458;2023-03-23T16:15:01;14.60;99.90
21834;DHT22;11079;51.092;3.458;2023-03-23T16:17:27;14.60;99.90
21834;DHT22;11079;51.092;3.458;2023-03-23T16:19:52;14.60;99.90
21834;DHT22;11079;51.092;3.458;2023-03-23T16:22:18;14.80;99.90
21834;DHT22;11079;51.092;3.458;2023-03-23T16:24:43;14.90;99.90
21834;DHT22;11079;51.092;3.458;2023-03-23T16:27:12;14.90;99.90
21834;DHT22;11079;51.092;3.458;2023-03-23T16:29:38;15.10;99.90
21834;DHT22;11079;51.092;3.458;2023-03-23T16:32:03;15.20;99.90
21834;DHT22;11079;51.092;3.458;2023-03-23T16:34:29;15.30;99.90
21834;DHT22;11079;51.092;3.458;2023-03-23T16:36:58;15.20;99.90
21834;DHT22;11079;51.092;3.458;2023-03-23T16:39:23;15.20;99.90
21834;DHT22;11079;51.092;3.458;2023-03-23T16:41:49;15.20;99.90
21834;DHT22;11079;51.092;3.458;2023-03-23T16:44:15;15.20;99.90
21834;DHT22;11079;51.092;3.458;2023-03-23T16:46:40;15.30;99.90
21834;DHT22;11079;51.092;3.458;2023-03-23T16:49:06;15.40;99.90
21834;DHT22;11079;51.092;3.458;2023-03-23T16:51:32;15.30;99.90
21834;DHT22;11079;51.092;3.458;2023-03-23T16:53:58;15.30;99.90
21834;DHT22;11079;51.092;3.458;2023-03-23T16:56:23;15.20;99.90
21834;DHT22;11079;51.092;3.458;2023-03-23T16:58:49;15.20;99.90
21834;DHT22;11079;51.092;3.458;2023-03-23T17:01:15;15.20;99.90
21834;DHT22;11079;51.092;3.458;2023-03-23T17:03:40;15.20;99.90
21834;DHT22;11079;51.092;3.458;2023-03-23T17:06:07;15.20;99.90
21834;DHT22;11079;51.092;3.458;2023-03-23T17:08:33;15.10;99.90
21834;DHT22;11079;51.092;3.458;2023-03-23T17:10:58;15.10;99.90
21834;DHT22;11079;51.092;3.458;2023-03-23T17:13:24;15.20;99.90
21834;DHT22;11079;51.092;3.458;2023-03-23T17:15:53;15.20;99.90
21834;DHT22;11079;51.092;3.458;2023-03-23T17:18:21;15.20;99.90
21834;DHT22;11079;51.092;3.458;2023-03-23T17:20:48;15.10;99.90